sensor_id;sensor_type;location;lat;lon;timestamp;temperature;humidity
56172;DHT22;42052;41.634;-0.946;2023-12-22T00:01:29;20.70;43.60
56172;DHT22;42052;41.634;-0.946;2023-12-22T00:03:56;20.70;43.70
56172;DHT22;42052;41.634;-0.946;2023-12-22T00:06:22;20.70;43.70
56172;DHT22;42052;41.634;-0.946;2023-12-22T00:08:47;20.70;43.70
56172;DHT22;42052;41.634;-0.946;2023-12-22T00:11:13;20.60;43.70
56172;DHT22;42052;41.634;-0.946;2023-12-22T00:13:39;20.60;43.70
56172;DHT22;42052;41.634;-0.946;2023-12-22T00:16:05;20.60;43.70
56172;DHT22;42052;41.634;-0.946;2023-12-22T00:18:31;20.60;43.70
56172;DHT22;42052;41.634;-0.946;2023-12-22T00:20:57;20.60;43.80
56172;DHT22;42052;41.634;-0.946;2023-12-22T00:23:23;20.60;43.80
56172;DHT22;42052;41.634;-0.946;2023-12-22T00:25:49;20.60;43.80
56172;DHT22;42052;41.634;-0.946;2023-12-22T00:28:14;20.60;44.60
56172;DHT22;42052;41.634;-0.946;2023-12-22T00:30:40;20.60;43.90
56172;DHT22;42052;41.634;-0.946;2023-12-22T00:33:06;20.60;43.90
56172;DHT22;42052;41.634;-0.946;2023-12-22T00:35:32;20.60;43.90
56172;DHT22;42052;41.634;-0.946;2023-12-22T00:37:58;20.60;43.90
56172;DHT22;42052;41.634;-0.946;2023-12-22T00:40:24;20.60;43.90
56172;DHT22;42052;41.634;-0.946;2023-12-22T00:42:50;20.60;44.00
56172;DHT22;42052;41.634;-0.946;2023-12-22T00:45:16;20.60;44.80
56172;DHT22;42052;41.634;-0.946;2023-12-22T00:47:41;20.50;44.00
56172;DHT22;42052;41.634;-0.946;2023-12-22T00:50:07;20.50;44.00
56172;DHT22;42052;41.634;-0.946;2023-12-22T00:52:33;20.50;44.10
56172;DHT22;42052;41.634;-0.946;2023-12-22T00:54:59;20.50;44.00
56172;DHT22;42052;41.634;-0.946;2023-12-22T00:57:25;20.50;44.10
56172;DHT22;42052;41.634;-0.946;2023-12-22T00:59:51;20.50;44.00
56172;DHT22;42052;41.634;-0.946;2023-12-22T01:02:17;20.50;44.10
56172;DHT22;42052;41.634;-0.946;2023-12-22T01:04:44;20.50;44.10
56172;DHT22;42052;41.634;-0.946;2023-12-22T01:07:10;20.50;44.10
56172;DHT22;42052;41.634;-0.946;2023-12-22T01:09:37;20.50;44.10
56172;DHT22;42052;41.634;-0.946;2023-12-22T01:12:06;20.50;44.10
56172;DHT22;42052;41.634;-0.946;2023-12-22T01:14:32;20.50;44.20
56172;DHT22;42052;41.634;-0.946;2023-12-22T01:16:58;20.50;44.10
56172;DHT22;42052;41.634;-0.946;2023-12-22T01:19:28;20.50;44.10
56172;DHT22;42052;41.634;-0.946;2023-12-22T01:21:54;20.50;44.20
56172;DHT22;42052;41.634;-0.946;2023-12-22T01:24:19;20.40;44.10
56172;DHT22;42052;41.634;-0.946;2023-12-22T01:26:45;20.50;44.20
56172;DHT22;42052;41.634;-0.946;2023-12-22T01:29:11;20.40;44.20
56172;DHT22;42052;41.634;-0.946;2023-12-22T01:31:37;20.40;44.10
56172;DHT22;42052;41.634;-0.946;2023-12-22T01:34:03;20.40;44.10
56172;DHT22;42052;41.634;-0.946;2023-12-22T01:36:28;20.50;44.30
56172;DHT22;42052;41.634;-0.946;2023-12-22T01:38:54;20.40;44.20
56172;DHT22;42052;41.634;-0.946;2023-12-22T01:41:20;20.40;44.20
56172;DHT22;42052;41.634;-0.946;2023-12-22T01:43:46;20.40;44.20
56172;DHT22;42052;41.634;-0.946;2023-12-22T01:46:12;20.40;44.20
56172;DHT22;42052;41.634;-0.946;2023-12-22T01:48:38;20.40;44.20
56172;DHT22;42052;41.634;-0.946;2023-12-22T01:51:06;20.40;44.20
56172;DHT22;42052;41.634;-0.946;2023-12-22T01:53:32;20.40;44.20
56172;DHT22;42052;41.634;-0.946;2023-12-22T01:56:00;20.40;44.20
56172;DHT22;42052;41.634;-0.946;2023-12-22T01:58:28;20.40;44.30
56172;DHT22;42052;41.634;-0.946;2023-12-22T02:00:55;20.40;44.30
56172;DHT22;42052;41.634;-0.946;2023-12-22T02:03:21;20.40;44.30
56172;DHT22;42052;41.634;-0.946;2023-12-22T02:05:47;20.40;44.30
56172;DHT22;42052;41.634;-0.946;2023-12-22T02:08:14;20.40;44.40
56172;DHT22;42052;41.634;-0.946;2023-12-22T02:10:42;20.40;44.30
56172;DHT22;42052;41.634;-0.946;2023-12-22T02:13:08;20.40;44.30
56172;DHT22;42052;41.634;-0.946;2023-12-22T02:15:35;20.40;45.10
56172;DHT22;42052;41.634;-0.946;2023-12-22T02:18:25;20.40;44.30
56172;DHT22;42052;41.634;-0.946;2023-12-22T02:20:53;20.40;44.30
56172;DHT22;42052;41.634;-0.946;2023-12-22T02:23:19;20.40;44.30
56172;DHT22;42052;41.634;-0.946;2023-12-22T02:25:45;20.40;44.40
56172;DHT22;42052;41.634;-0.946;2023-12-22T02:28:15;20.40;44.40
56172;DHT22;42052;41.634;-0.946;2023-12-22T02:30:52;20.40;44.40
56172;DHT22;42052;41.634;-0.946;2023-12-22T02:33:23;20.30;44.30
56172;DHT22;42052;41.634;-0.946;2023-12-22T02:35:50;20.40;44.30
56172;DHT22;42052;41.634;-0.946;2023-12-22T02:38:18;20.40;44.40
56172;DHT22;42052;41.634;-0.946;2023-12-22T02:40:45;20.40;44.40
56172;DHT22;42052;41.634;-0.946;2023-12-22T02:43:11;20.30;44.30
56172;DHT22;42052;41.634;-0.946;2023-12-22T02:45:37;20.30;44.50
56172;DHT22;42052;41.634;-0.946;2023-12-22T02:48:03;20.30;44.40
56172;DHT22;42052;41.634;-0.946;2023-12-22T02:50:28;20.30;44.30
56172;DHT22;42052;41.634;-0.946;2023-12-22T02:52:54;20.30;44.40
56172;DHT22;42052;41.634;-0.946;2023-12-22T02:55:20;20.30;44.40
56172;DHT22;42052;41.634;-0.946;2023-12-22T02:57:46;20.30;44.40
56172;DHT22;42052;41.634;-0.946;2023-12-22T03:00:12;20.30;44.40
56172;DHT22;42052;41.634;-0.946;2023-12-22T03:02:38;20.30;44.50
56172;DHT22;42052;41.634;-0.946;2023-12-22T03:05:04;20.30;44.40
56172;DHT22;42052;41.634;-0.946;2023-12-22T03:07:30;20.30;44.60
56172;DHT22;42052;41.634;-0.946;2023-12-22T03:09:56;20.30;44.60
56172;DHT22;42052;41.634;-0.946;2023-12-22T03:12:21;20.30;44.60
56172;DHT22;42052;41.634;-0.946;2023-12-22T03:14:48;20.30;44.60
56172;DHT22;42052;41.634;-0.946;2023-12-22T03:17:14;20.30;44.60
56172;DHT22;42052;41.634;-0.946;2023-12-22T03:19:40;20.30;44.60
56172;DHT22;42052;41.634;-0.946;2023-12-22T03:22:06;20.30;44.70
56172;DHT22;42052;41.634;-0.946;2023-12-22T03:24:31;20.30;44.70
56172;DHT22;42052;41.634;-0.946;2023-12-22T03:26:57;20.30;44.60
56172;DHT22;42052;41.634;-0.946;2023-12-22T03:29:23;20.30;44.60
56172;DHT22;42052;41.634;-0.946;2023-12-22T03:31:49;20.40;44.70
56172;DHT22;42052;41.634;-0.946;2023-12-22T03:34:14;20.40;44.60
56172;DHT22;42052;41.634;-0.946;2023-12-22T03:36:41;20.40;44.60
56172;DHT22;42052;41.634;-0.946;2023-12-22T03:39:06;20.40;44.60
56172;DHT22;42052;41.634;-0.946;2023-12-22T03:41:32;20.40;44.70
56172;DHT22;42052;41.634;-0.946;2023-12-22T03:43:58;20.40;44.70
56172;DHT22;42052;41.634;-0.946;2023-12-22T03:46:24;20.40;44.70
56172;DHT22;42052;41.634;-0.946;2023-12-22T03:48:51;20.40;44.70
56172;DHT22;42052;41.634;-0.946;2023-12-22T03:51:17;20.40;44.70
56172;DHT22;42052;41.634;-0.946;2023-12-22T03:53:42;20.40;44.70
56172;DHT22;42052;41.634;-0.946;2023-12-22T03:56:09;20.40;44.70
56172;DHT22;42052;41.634;-0.946;2023-12-22T03:58:35;20.40;44.70
56172;DHT22;42052;41.634;-0.946;2023-12-22T04:01:01;20.40;44.60
56172;DHT22;42052;41.634;-0.946;2023-12-22T04:03:27;20.40;44.50
56172;DHT22;42052;41.634;-0.946;2023-12-22T04:05:53;20.40;44.50
56172;DHT22;42052;41.634;-0.946;2023-12-22T04:08:19;20.50;44.60
56172;DHT22;42052;41.634;-0.946;2023-12-22T04:10:49;20.40;44.60
56172;DHT22;42052;41.634;-0.946;2023-12-22T04:13:15;20.40;44.50
56172;DHT22;42052;41.634;-0.946;2023-12-22T04:15:40;20.40;44.60
56172;DHT22;42052;41.634;-0.946;2023-12-22T04:18:06;20.50;44.60
56172;DHT22;42052;41.634;-0.946;2023-12-22T04:20:32;20.40;44.50
56172;DHT22;42052;41.634;-0.946;2023-12-22T04:22:58;20.50;44.50
56172;DHT22;42052;41.634;-0.946;2023-12-22T04:25:24;20.40;44.50
56172;DHT22;42052;41.634;-0.946;2023-12-22T04:27:51;20.50;44.40
56172;DHT22;42052;41.634;-0.946;2023-12-22T04:30:17;20.50;44.40
56172;DHT22;42052;41.634;-0.946;2023-12-22T04:32:43;20.50;44.40
56172;DHT22;42052;41.634;-0.946;2023-12-22T04:35:08;20.50;45.10
56172;DHT22;42052;41.634;-0.946;2023-12-22T04:37:34;20.50;44.30
56172;DHT22;42052;41.634;-0.946;2023-12-22T04:40:00;20.50;44.30
56172;DHT22;42052;41.634;-0.946;2023-12-22T04:42:26;20.40;44.30
56172;DHT22;42052;41.634;-0.946;2023-12-22T04:44:52;20.40;44.30
56172;DHT22;42052;41.634;-0.946;2023-12-22T04:47:18;20.40;44.20
56172;DHT22;42052;41.634;-0.946;2023-12-22T04:49:44;20.40;44.20
56172;DHT22;42052;41.634;-0.946;2023-12-22T04:52:11;20.50;44.40
56172;DHT22;42052;41.634;-0.946;2023-12-22T04:54:37;20.50;44.20
56172;DHT22;42052;41.634;-0.946;2023-12-22T04:57:03;20.50;44.20
56172;DHT22;42052;41.634;-0.946;2023-12-22T04:59:29;20.40;44.50
56172;DHT22;42052;41.634;-0.946;2023-12-22T05:01:55;20.40;44.70
56172;DHT22;42052;41.634;-0.946;2023-12-22T05:04:20;20.40;44.80
56172;DHT22;42052;41.634;-0.946;2023-12-22T05:06:47;20.40;44.70
56172;DHT22;42052;41.634;-0.946;2023-12-22T05:09:13;20.40;44.70
56172;DHT22;42052;41.634;-0.946;2023-12-22T05:11:39;20.40;44.70
56172;DHT22;42052;41.634;-0.946;2023-12-22T05:14:05;20.40;44.70
56172;DHT22;42052;41.634;-0.946;2023-12-22T05:16:31;20.40;44.60
56172;DHT22;42052;41.634;-0.946;2023-12-22T05:19:00;20.50;44.70
56172;DHT22;42052;41.634;-0.946;2023-12-22T05:21:26;20.50;44.60
56172;DHT22;42052;41.634;-0.946;2023-12-22T05:23:53;20.50;44.60
56172;DHT22;42052;41.634;-0.946;2023-12-22T05:26:20;20.50;44.60
56172;DHT22;42052;41.634;-0.946;2023-12-22T05:28:46;20.50;44.50
56172;DHT22;42052;41.634;-0.946;2023-12-22T05:31:12;20.50;44.60
56172;DHT22;42052;41.634;-0.946;2023-12-22T05:33:38;20.50;44.50
56172;DHT22;42052;41.634;-0.946;2023-12-22T05:36:04;20.50;44.60
56172;DHT22;42052;41.634;-0.946;2023-12-22T05:38:30;20.50;44.50
56172;DHT22;42052;41.634;-0.946;2023-12-22T05:40:57;20.50;44.50
56172;DHT22;42052;41.634;-0.946;2023-12-22T05:43:23;20.50;44.50
56172;DHT22;42052;41.634;-0.946;2023-12-22T05:45:48;20.50;44.50
56172;DHT22;42052;41.634;-0.946;2023-12-22T05:48:14;20.50;44.60
56172;DHT22;42052;41.634;-0.946;2023-12-22T05:50:40;20.50;44.60
56172;DHT22;42052;41.634;-0.946;2023-12-22T05:53:06;20.50;44.60
56172;DHT22;42052;41.634;-0.946;2023-12-22T05:55:32;20.50;44.50
56172;DHT22;42052;41.634;-0.946;2023-12-22T05:57:58;20.50;44.60
56172;DHT22;42052;41.634;-0.946;2023-12-22T06:00:23;20.50;44.60
56172;DHT22;42052;41.634;-0.946;2023-12-22T06:02:49;20.50;44.50
56172;DHT22;42052;41.634;-0.946;2023-12-22T06:05:15;20.50;44.50
56172;DHT22;42052;41.634;-0.946;2023-12-22T06:07:41;20.50;44.50
56172;DHT22;42052;41.634;-0.946;2023-12-22T06:10:07;20.50;44.60
56172;DHT22;42052;41.634;-0.946;2023-12-22T06:12:35;20.50;44.70
56172;DHT22;42052;41.634;-0.946;2023-12-22T06:15:01;20.50;44.70
56172;DHT22;42052;41.634;-0.946;2023-12-22T06:17:27;20.60;44.70
56172;DHT22;42052;41.634;-0.946;2023-12-22T06:19:52;20.50;44.50
56172;DHT22;42052;41.634;-0.946;2023-12-22T06:22:18;20.60;44.50
56172;DHT22;42052;41.634;-0.946;2023-12-22T06:24:44;20.50;44.50
56172;DHT22;42052;41.634;-0.946;2023-12-22T06:27:10;20.60;44.50
56172;DHT22;42052;41.634;-0.946;2023-12-22T06:29:36;20.60;44.50
56172;DHT22;42052;41.634;-0.946;2023-12-22T06:32:02;20.60;44.50
56172;DHT22;42052;41.634;-0.946;2023-12-22T06:34:29;20.60;44.50
56172;DHT22;42052;41.634;-0.946;2023-12-22T06:36:54;20.50;44.40
56172;DHT22;42052;41.634;-0.946;2023-12-22T06:39:20;20.60;44.50
56172;DHT22;42052;41.634;-0.946;2023-12-22T06:41:46;20.60;44.50
56172;DHT22;42052;41.634;-0.946;2023-12-22T06:44:12;20.60;44.50
56172;DHT22;42052;41.634;-0.946;2023-12-22T06:46:38;20.60;44.60
56172;DHT22;42052;41.634;-0.946;2023-12-22T06:49:04;20.60;44.50
56172;DHT22;42052;41.634;-0.946;2023-12-22T06:51:31;20.60;44.50
56172;DHT22;42052;41.634;-0.946;2023-12-22T06:53:57;20.60;44.40
56172;DHT22;42052;41.634;-0.946;2023-12-22T06:56:27;20.60;44.50
56172;DHT22;42052;41.634;-0.946;2023-12-22T06:58:55;20.60;44.50
56172;DHT22;42052;41.634;-0.946;2023-12-22T07:01:25;20.60;44.60
56172;DHT22;42052;41.634;-0.946;2023-12-22T07:03:51;20.60;44.50
56172;DHT22;42052;41.634;-0.946;2023-12-22T07:06:21;20.60;44.50
56172;DHT22;42052;41.634;-0.946;2023-12-22T07:11:48;20.60;44.40
56172;DHT22;42052;41.634;-0.946;2023-12-22T07:14:14;20.60;44.40
56172;DHT22;42052;41.634;-0.946;2023-12-22T07:16:40;20.60;44.40
56172;DHT22;42052;41.634;-0.946;2023-12-22T07:19:07;20.60;45.10
56172;DHT22;42052;41.634;-0.946;2023-12-22T07:21:33;20.60;44.30
56172;DHT22;42052;41.634;-0.946;2023-12-22T07:23:59;20.60;44.30
56172;DHT22;42052;41.634;-0.946;2023-12-22T07:26:26;20.60;44.30
56172;DHT22;42052;41.634;-0.946;2023-12-22T07:28:55;20.60;44.30
56172;DHT22;42052;41.634;-0.946;2023-12-22T07:31:21;20.60;44.30
56172;DHT22;42052;41.634;-0.946;2023-12-22T07:33:47;20.50;44.20
56172;DHT22;42052;41.634;-0.946;2023-12-22T07:36:13;20.60;44.20
56172;DHT22;42052;41.634;-0.946;2023-12-22T07:38:39;20.60;44.20
56172;DHT22;42052;41.634;-0.946;2023-12-22T07:41:05;20.50;44.20
56172;DHT22;42052;41.634;-0.946;2023-12-22T07:43:31;20.50;44.20
56172;DHT22;42052;41.634;-0.946;2023-12-22T07:45:57;20.60;44.10
56172;DHT22;42052;41.634;-0.946;2023-12-22T07:48:23;20.50;44.10
56172;DHT22;42052;41.634;-0.946;2023-12-22T07:50:51;20.50;44.10
56172;DHT22;42052;41.634;-0.946;2023-12-22T07:53:17;20.60;44.10
56172;DHT22;42052;41.634;-0.946;2023-12-22T07:55:44;20.50;44.00
56172;DHT22;42052;41.634;-0.946;2023-12-22T07:58:09;20.50;44.00
56172;DHT22;42052;41.634;-0.946;2023-12-22T08:00:36;20.50;44.00
56172;DHT22;42052;41.634;-0.946;2023-12-22T08:03:02;20.50;44.00
56172;DHT22;42052;41.634;-0.946;2023-12-22T08:05:28;20.50;44.10
56172;DHT22;42052;41.634;-0.946;2023-12-22T08:07:55;20.50;44.00
56172;DHT22;42052;41.634;-0.946;2023-12-22T08:10:21;20.50;44.00
56172;DHT22;42052;41.634;-0.946;2023-12-22T08:12:47;20.50;44.00
56172;DHT22;42052;41.634;-0.946;2023-12-22T08:15:13;20.50;44.00
56172;DHT22;42052;41.634;-0.946;2023-12-22T08:17:51;20.50;44.00
56172;DHT22;42052;41.634;-0.946;2023-12-22T08:20:21;20.50;44.00
56172;DHT22;42052;41.634;-0.946;2023-12-22T08:22:48;20.40;44.00
56172;DHT22;42052;41.634;-0.946;2023-12-22T08:25:14;20.50;44.00
56172;DHT22;42052;41.634;-0.946;2023-12-22T08:27:40;20.50;44.00
56172;DHT22;42052;41.634;-0.946;2023-12-22T08:30:08;20.40;44.00
56172;DHT22;42052;41.634;-0.946;2023-12-22T08:32:34;20.50;44.00
56172;DHT22;42052;41.634;-0.946;2023-12-22T08:35:00;20.40;44.00
56172;DHT22;42052;41.634;-0.946;2023-12-22T08:37:26;20.40;43.90
56172;DHT22;42052;41.634;-0.946;2023-12-22T08:39:51;20.40;44.00
56172;DHT22;42052;41.634;-0.946;2023-12-22T08:42:18;20.40;44.00
56172;DHT22;42052;41.634;-0.946;2023-12-22T08:44:44;20.40;44.00
56172;DHT22;42052;41.634;-0.946;2023-12-22T08:47:10;20.40;43.90
56172;DHT22;42052;41.634;-0.946;2023-12-22T08:49:35;20.40;43.90
56172;DHT22;42052;41.634;-0.946;2023-12-22T08:52:01;20.40;43.90
56172;DHT22;42052;41.634;-0.946;2023-12-22T08:54:29;20.40;44.00
56172;DHT22;42052;41.634;-0.946;2023-12-22T08:56:55;20.40;44.00
56172;DHT22;42052;41.634;-0.946;2023-12-22T08:59:21;20.40;43.90
56172;DHT22;42052;41.634;-0.946;2023-12-22T09:01:47;20.40;43.90
56172;DHT22;42052;41.634;-0.946;2023-12-22T09:04:13;20.40;43.90
56172;DHT22;42052;41.634;-0.946;2023-12-22T09:06:39;20.40;43.90
56172;DHT22;42052;41.634;-0.946;2023-12-22T09:09:05;20.40;43.90
56172;DHT22;42052;41.634;-0.946;2023-12-22T09:11:32;20.40;43.90
56172;DHT22;42052;41.634;-0.946;2023-12-22T09:13:57;20.40;43.90
56172;DHT22;42052;41.634;-0.946;2023-12-22T09:16:24;20.40;43.90
56172;DHT22;42052;41.634;-0.946;2023-12-22T09:18:53;20.40;43.90
56172;DHT22;42052;41.634;-0.946;2023-12-22T09:21:19;20.40;43.90
56172;DHT22;42052;41.634;-0.946;2023-12-22T09:23:45;20.40;43.90
56172;DHT22;42052;41.634;-0.946;2023-12-22T09:26:15;20.30;44.00
56172;DHT22;42052;41.634;-0.946;2023-12-22T09:28:42;20.30;43.80
56172;DHT22;42052;41.634;-0.946;2023-12-22T09:31:08;20.30;43.80
56172;DHT22;42052;41.634;-0.946;2023-12-22T09:33:35;20.40;44.00
56172;DHT22;42052;41.634;-0.946;2023-12-22T09:36:01;20.30;43.90
56172;DHT22;42052;41.634;-0.946;2023-12-22T09:38:27;20.30;43.90
56172;DHT22;42052;41.634;-0.946;2023-12-22T09:40:54;20.30;43.90
56172;DHT22;42052;41.634;-0.946;2023-12-22T09:43:20;20.30;44.00
56172;DHT22;42052;41.634;-0.946;2023-12-22T09:45:46;20.30;43.90
56172;DHT22;42052;41.634;-0.946;2023-12-22T09:48:13;20.30;43.90
56172;DHT22;42052;41.634;-0.946;2023-12-22T09:50:43;20.30;43.90
56172;DHT22;42052;41.634;-0.946;2023-12-22T09:53:13;20.30;43.90
56172;DHT22;42052;41.634;-0.946;2023-12-22T09:55:44;20.30;43.90
56172;DHT22;42052;41.634;-0.946;2023-12-22T09:58:15;20.30;43.90
56172;DHT22;42052;41.634;-0.946;2023-12-22T10:00:43;20.30;44.00
56172;DHT22;42052;41.634;-0.946;2023-12-22T10:03:10;20.30;44.00
56172;DHT22;42052;41.634;-0.946;2023-12-22T10:05:38;20.30;44.00
56172;DHT22;42052;41.634;-0.946;2023-12-22T10:08:05;20.30;44.00
56172;DHT22;42052;41.634;-0.946;2023-12-22T10:10:32;20.30;44.00
56172;DHT22;42052;41.634;-0.946;2023-12-22T10:12:59;20.30;44.00
56172;DHT22;42052;41.634;-0.946;2023-12-22T10:15:27;20.30;44.00
56172;DHT22;42052;41.634;-0.946;2023-12-22T10:17:54;20.30;44.00
56172;DHT22;42052;41.634;-0.946;2023-12-22T10:20:20;20.30;44.00
56172;DHT22;42052;41.634;-0.946;2023-12-22T10:22:46;20.30;44.00
56172;DHT22;42052;41.634;-0.946;2023-12-22T10:25:15;20.30;44.00
56172;DHT22;42052;41.634;-0.946;2023-12-22T10:27:42;20.30;44.00
56172;DHT22;42052;41.634;-0.946;2023-12-22T10:30:09;20.30;44.00
56172;DHT22;42052;41.634;-0.946;2023-12-22T10:32:40;20.30;44.00
56172;DHT22;42052;41.634;-0.946;2023-12-22T10:35:09;20.30;44.00
56172;DHT22;42052;41.634;-0.946;2023-12-22T10:37:35;20.30;44.00
56172;DHT22;42052;41.634;-0.946;2023-12-22T10:40:04;20.30;44.00
56172;DHT22;42052;41.634;-0.946;2023-12-22T10:42:32;20.30;44.50
56172;DHT22;42052;41.634;-0.946;2023-12-22T10:44:58;20.30;44.00
56172;DHT22;42052;41.634;-0.946;2023-12-22T10:47:24;20.30;44.00
56172;DHT22;42052;41.634;-0.946;2023-12-22T10:49:49;20.30;44.00
56172;DHT22;42052;41.634;-0.946;2023-12-22T10:52:16;20.30;44.00
56172;DHT22;42052;41.634;-0.946;2023-12-22T10:54:43;20.30;44.00
56172;DHT22;42052;41.634;-0.946;2023-12-22T10:57:10;20.30;44.00
56172;DHT22;42052;41.634;-0.946;2023-12-22T10:59:40;20.30;44.00
56172;DHT22;42052;41.634;-0.946;2023-12-22T11:02:09;20.30;43.90
56172;DHT22;42052;41.634;-0.946;2023-12-22T11:04:37;20.30;44.00
56172;DHT22;42052;41.634;-0.946;2023-12-22T11:07:04;20.30;43.90
56172;DHT22;42052;41.634;-0.946;2023-12-22T11:09:32;20.30;43.90
56172;DHT22;42052;41.634;-0.946;2023-12-22T11:11:59;20.40;44.00
56172;DHT22;42052;41.634;-0.946;2023-12-22T11:14:26;20.30;43.90
56172;DHT22;42052;41.634;-0.946;2023-12-22T11:16:53;20.40;44.00
56172;DHT22;42052;41.634;-0.946;2023-12-22T11:19:20;20.40;44.00
56172;DHT22;42052;41.634;-0.946;2023-12-22T11:21:50;20.40;44.00
56172;DHT22;42052;41.634;-0.946;2023-12-22T11:24:17;20.40;44.00
56172;DHT22;42052;41.634;-0.946;2023-12-22T11:26:45;20.40;44.00
56172;DHT22;42052;41.634;-0.946;2023-12-22T11:29:14;20.40;44.00
56172;DHT22;42052;41.634;-0.946;2023-12-22T11:31:45;20.40;43.90
56172;DHT22;42052;41.634;-0.946;2023-12-22T11:34:14;20.40;44.00
56172;DHT22;42052;41.634;-0.946;2023-12-22T11:36:43;20.40;43.90
56172;DHT22;42052;41.634;-0.946;2023-12-22T11:39:11;20.40;44.00
56172;DHT22;42052;41.634;-0.946;2023-12-22T11:41:37;20.40;43.90
56172;DHT22;42052;41.634;-0.946;2023-12-22T11:44:05;20.40;43.90
56172;DHT22;42052;41.634;-0.946;2023-12-22T11:46:31;20.40;43.90
56172;DHT22;42052;41.634;-0.946;2023-12-22T11:48:59;20.40;43.90
56172;DHT22;42052;41.634;-0.946;2023-12-22T11:51:31;20.40;43.90
56172;DHT22;42052;41.634;-0.946;2023-12-22T11:53:57;20.40;43.90
56172;DHT22;42052;41.634;-0.946;2023-12-22T11:56:24;20.40;43.90
56172;DHT22;42052;41.634;-0.946;2023-12-22T11:58:52;20.40;43.90
56172;DHT22;42052;41.634;-0.946;2023-12-22T12:01:23;20.40;43.90
56172;DHT22;42052;41.634;-0.946;2023-12-22T12:03:55;20.40;43.90
56172;DHT22;42052;41.634;-0.946;2023-12-22T12:08:55;20.40;43.90
56172;DHT22;42052;41.634;-0.946;2023-12-22T12:11:22;20.40;43.90
56172;DHT22;42052;41.634;-0.946;2023-12-22T12:13:48;20.40;43.90
56172;DHT22;42052;41.634;-0.946;2023-12-22T12:16:19;20.40;43.90
56172;DHT22;42052;41.634;-0.946;2023-12-22T12:18:47;20.40;43.90
56172;DHT22;42052;41.634;-0.946;2023-12-22T12:21:13;20.40;43.90
56172;DHT22;42052;41.634;-0.946;2023-12-22T12:23:41;20.40;43.90
56172;DHT22;42052;41.634;-0.946;2023-12-22T12:26:07;20.40;43.90
56172;DHT22;42052;41.634;-0.946;2023-12-22T12:28:36;20.40;44.00
56172;DHT22;42052;41.634;-0.946;2023-12-22T12:31:08;20.40;44.00
56172;DHT22;42052;41.634;-0.946;2023-12-22T12:33:37;20.50;44.00
56172;DHT22;42052;41.634;-0.946;2023-12-22T12:36:04;20.40;43.90
56172;DHT22;42052;41.634;-0.946;2023-12-22T12:38:42;20.50;44.00
56172;DHT22;42052;41.634;-0.946;2023-12-22T12:41:10;20.40;43.90
56172;DHT22;42052;41.634;-0.946;2023-12-22T12:43:42;20.50;44.00
56172;DHT22;42052;41.634;-0.946;2023-12-22T12:46:08;20.50;44.00
56172;DHT22;42052;41.634;-0.946;2023-12-22T12:48:34;20.50;44.00
56172;DHT22;42052;41.634;-0.946;2023-12-22T12:51:04;20.50;44.00
56172;DHT22;42052;41.634;-0.946;2023-12-22T12:53:32;20.50;44.00
56172;DHT22;42052;41.634;-0.946;2023-12-22T12:56:01;20.50;44.00
56172;DHT22;42052;41.634;-0.946;2023-12-22T12:58:30;20.50;44.00
56172;DHT22;42052;41.634;-0.946;2023-12-22T13:01:10;20.50;44.00
56172;DHT22;42052;41.634;-0.946;2023-12-22T13:03:54;20.50;44.00
56172;DHT22;42052;41.634;-0.946;2023-12-22T13:06:20;20.50;44.10
56172;DHT22;42052;41.634;-0.946;2023-12-22T13:08:50;20.50;44.30
56172;DHT22;42052;41.634;-0.946;2023-12-22T13:11:21;20.50;44.20
56172;DHT22;42052;41.634;-0.946;2023-12-22T13:13:47;20.50;44.20
56172;DHT22;42052;41.634;-0.946;2023-12-22T13:16:13;20.50;44.20
56172;DHT22;42052;41.634;-0.946;2023-12-22T13:18:39;20.50;44.40
56172;DHT22;42052;41.634;-0.946;2023-12-22T13:21:06;20.50;44.30
56172;DHT22;42052;41.634;-0.946;2023-12-22T13:23:32;20.50;44.60
56172;DHT22;42052;41.634;-0.946;2023-12-22T13:25:58;20.50;44.50
56172;DHT22;42052;41.634;-0.946;2023-12-22T13:28:27;20.50;44.50
56172;DHT22;42052;41.634;-0.946;2023-12-22T13:30:56;20.50;44.40
56172;DHT22;42052;41.634;-0.946;2023-12-22T13:33:22;20.50;44.40
56172;DHT22;42052;41.634;-0.946;2023-12-22T13:35:50;20.50;44.40
56172;DHT22;42052;41.634;-0.946;2023-12-22T13:38:16;20.50;44.40
56172;DHT22;42052;41.634;-0.946;2023-12-22T13:40:45;20.50;44.40
56172;DHT22;42052;41.634;-0.946;2023-12-22T13:43:14;20.50;44.50
56172;DHT22;42052;41.634;-0.946;2023-12-22T13:45:40;20.50;44.50
56172;DHT22;42052;41.634;-0.946;2023-12-22T13:48:06;20.50;44.50
56172;DHT22;42052;41.634;-0.946;2023-12-22T13:50:32;20.50;44.50
56172;DHT22;42052;41.634;-0.946;2023-12-22T13:53:10;20.50;44.50
56172;DHT22;42052;41.634;-0.946;2023-12-22T13:55:37;20.50;45.20
56172;DHT22;42052;41.634;-0.946;2023-12-22T13:58:03;20.50;44.50
56172;DHT22;42052;41.634;-0.946;2023-12-22T14:00:30;20.50;44.50
56172;DHT22;42052;41.634;-0.946;2023-12-22T14:02:57;20.50;44.40
56172;DHT22;42052;41.634;-0.946;2023-12-22T14:05:23;20.50;44.50
56172;DHT22;42052;41.634;-0.946;2023-12-22T14:07:48;20.50;44.40
56172;DHT22;42052;41.634;-0.946;2023-12-22T14:10:15;20.50;44.50
56172;DHT22;42052;41.634;-0.946;2023-12-22T14:12:41;20.50;44.50
56172;DHT22;42052;41.634;-0.946;2023-12-22T14:15:08;20.50;44.70
56172;DHT22;42052;41.634;-0.946;2023-12-22T14:17:34;20.50;44.50
56172;DHT22;42052;41.634;-0.946;2023-12-22T14:20:00;20.50;44.60
56172;DHT22;42052;41.634;-0.946;2023-12-22T14:22:25;20.50;44.60
56172;DHT22;42052;41.634;-0.946;2023-12-22T14:24:52;20.50;44.50
56172;DHT22;42052;41.634;-0.946;2023-12-22T14:27:18;20.60;44.50
56172;DHT22;42052;41.634;-0.946;2023-12-22T14:29:47;20.60;44.50
56172;DHT22;42052;41.634;-0.946;2023-12-22T14:32:13;20.50;44.50
56172;DHT22;42052;41.634;-0.946;2023-12-22T14:34:40;20.60;44.50
56172;DHT22;42052;41.634;-0.946;2023-12-22T14:37:06;20.60;44.70
56172;DHT22;42052;41.634;-0.946;2023-12-22T14:39:32;20.60;45.20
56172;DHT22;42052;41.634;-0.946;2023-12-22T14:41:59;20.50;45.20
56172;DHT22;42052;41.634;-0.946;2023-12-22T14:44:25;20.50;45.40
56172;DHT22;42052;41.634;-0.946;2023-12-22T14:46:51;20.60;46.50
56172;DHT22;42052;41.634;-0.946;2023-12-22T14:49:16;20.60;46.30
56172;DHT22;42052;41.634;-0.946;2023-12-22T14:51:43;20.60;46.70
56172;DHT22;42052;41.634;-0.946;2023-12-22T14:54:09;20.60;46.40
56172;DHT22;42052;41.634;-0.946;2023-12-22T14:56:38;20.60;46.50
56172;DHT22;42052;41.634;-0.946;2023-12-22T14:59:04;20.60;46.70
56172;DHT22;42052;41.634;-0.946;2023-12-22T15:01:30;20.60;47.00
56172;DHT22;42052;41.634;-0.946;2023-12-22T15:03:58;20.60;47.00
56172;DHT22;42052;41.634;-0.946;2023-12-22T15:06:24;20.60;47.00
56172;DHT22;42052;41.634;-0.946;2023-12-22T15:08:50;20.60;47.00
56172;DHT22;42052;41.634;-0.946;2023-12-22T15:11:17;20.60;47.30
56172;DHT22;42052;41.634;-0.946;2023-12-22T15:13:43;20.60;46.80
56172;DHT22;42052;41.634;-0.946;2023-12-22T15:16:09;20.60;47.00
56172;DHT22;42052;41.634;-0.946;2023-12-22T15:18:34;20.60;47.10